sensor_id;sensor_type;location;lat;lon;timestamp;temperature;humidity
20102;DHT22;10210;52.284;9.892;2023-04-06T00:01:37;7.60;99.90
20102;DHT22;10210;52.284;9.892;2023-04-06T00:04:05;7.60;99.90
20102;DHT22;10210;52.284;9.892;2023-04-06T00:06:31;7.60;99.90
20102;DHT22;10210;52.284;9.892;2023-04-06T00:08:58;7.60;99.90
20102;DHT22;10210;52.284;9.892;2023-04-06T00:11:24;7.60;99.90
20102;DHT22;10210;52.284;9.892;2023-04-06T00:13:50;7.50;99.90
20102;DHT22;10210;52.284;9.892;2023-04-06T00:16:16;7.50;99.90
20102;DHT22;10210;52.284;9.892;2023-04-06T00:18:42;7.50;99.90
20102;DHT22;10210;52.284;9.892;2023-04-06T00:21:11;7.30;99.90
20102;DHT22;10210;52.284;9.892;2023-04-06T00:23:39;7.30;99.90
20102;DHT22;10210;52.284;9.892;2023-04-06T00:26:05;7.30;99.90
20102;DHT22;10210;52.284;9.892;2023-04-06T00:28:31;7.20;99.90
20102;DHT22;10210;52.284;9.892;2023-04-06T00:30:57;7.20;99.90
20102;DHT22;10210;52.284;9.892;2023-04-06T00:33:23;7.20;99.90
20102;DHT22;10210;52.284;9.892;2023-04-06T00:35:49;7.20;99.90
20102;DHT22;10210;52.284;9.892;2023-04-06T00:38:15;7.20;99.90
20102;DHT22;10210;52.284;9.892;2023-04-06T00:40:42;7.20;99.90
20102;DHT22;10210;52.284;9.892;2023-04-06T00:43:10;7.10;99.90
20102;DHT22;10210;52.284;9.892;2023-04-06T00:45:38;7.10;99.90
20102;DHT22;10210;52.284;9.892;2023-04-06T00:48:05;7.10;99.90
20102;DHT22;10210;52.284;9.892;2023-04-06T00:50:33;7.10;99.90
20102;DHT22;10210;52.284;9.892;2023-04-06T00:52:59;7.10;99.90
20102;DHT22;10210;52.284;9.892;2023-04-06T00:55:26;7.00;99.90
20102;DHT22;10210;52.284;9.892;2023-04-06T00:57:53;7.00;99.90
20102;DHT22;10210;52.284;9.892;2023-04-06T01:00:20;6.90;99.90
20102;DHT22;10210;52.284;9.892;2023-04-06T01:02:46;6.90;99.90
20102;DHT22;10210;52.284;9.892;2023-04-06T01:05:13;6.90;99.90
20102;DHT22;10210;52.284;9.892;2023-04-06T01:07:38;6.80;99.90
20102;DHT22;10210;52.284;9.892;2023-04-06T01:10:04;6.80;99.90
20102;DHT22;10210;52.284;9.892;2023-04-06T01:12:31;6.80;99.90
20102;DHT22;10210;52.284;9.892;2023-04-06T01:14:56;6.80;99.90
20102;DHT22;10210;52.284;9.892;2023-04-06T01:17:22;6.80;99.90
20102;DHT22;10210;52.284;9.892;2023-04-06T01:19:48;6.80;99.90
20102;DHT22;10210;52.284;9.892;2023-04-06T01:22:19;6.80;99.90
20102;DHT22;10210;52.284;9.892;2023-04-06T01:24:45;6.90;99.90
20102;DHT22;10210;52.284;9.892;2023-04-06T01:27:12;6.90;99.90
20102;DHT22;10210;52.284;9.892;2023-04-06T01:29:38;6.80;99.90
20102;DHT22;10210;52.284;9.892;2023-04-06T01:32:07;6.90;99.90
20102;DHT22;10210;52.284;9.892;2023-04-06T01:34:33;6.80;99.90
20102;DHT22;10210;52.284;9.892;2023-04-06T01:36:59;6.90;99.90
20102;DHT22;10210;52.284;9.892;2023-04-06T01:39:25;6.80;99.90
20102;DHT22;10210;52.284;9.892;2023-04-06T01:41:51;6.90;99.90
20102;DHT22;10210;52.284;9.892;2023-04-06T01:44:17;6.90;99.90
20102;DHT22;10210;52.284;9.892;2023-04-06T01:46:44;6.90;99.90
20102;DHT22;10210;52.284;9.892;2023-04-06T01:49:11;6.90;99.90
20102;DHT22;10210;52.284;9.892;2023-04-06T01:51:37;6.90;99.90
20102;DHT22;10210;52.284;9.892;2023-04-06T01:54:03;6.90;99.90
20102;DHT22;10210;52.284;9.892;2023-04-06T01:56:28;6.90;99.90
20102;DHT22;10210;52.284;9.892;2023-04-06T01:58:54;6.90;99.90
20102;DHT22;10210;52.284;9.892;2023-04-06T02:01:20;6.90;99.90
20102;DHT22;10210;52.284;9.892;2023-04-06T02:03:46;6.90;99.90
20102;DHT22;10210;52.284;9.892;2023-04-06T02:06:12;6.90;99.90
20102;DHT22;10210;52.284;9.892;2023-04-06T02:08:37;6.90;99.90
20102;DHT22;10210;52.284;9.892;2023-04-06T02:11:03;6.90;99.90
20102;DHT22;10210;52.284;9.892;2023-04-06T02:13:29;6.80;99.90
20102;DHT22;10210;52.284;9.892;2023-04-06T02:15:54;6.80;99.90
20102;DHT22;10210;52.284;9.892;2023-04-06T02:18:20;6.80;99.90
20102;DHT22;10210;52.284;9.892;2023-04-06T02:20:46;6.80;99.90
20102;DHT22;10210;52.284;9.892;2023-04-06T02:23:11;6.80;99.90
20102;DHT22;10210;52.284;9.892;2023-04-06T02:25:37;6.70;99.90
20102;DHT22;10210;52.284;9.892;2023-04-06T02:28:04;6.70;99.90
20102;DHT22;10210;52.284;9.892;2023-04-06T02:30:30;6.70;99.90
20102;DHT22;10210;52.284;9.892;2023-04-06T02:32:59;6.60;99.90
20102;DHT22;10210;52.284;9.892;2023-04-06T02:35:27;6.60;99.90
20102;DHT22;10210;52.284;9.892;2023-04-06T02:37:54;6.60;99.90
20102;DHT22;10210;52.284;9.892;2023-04-06T02:40:19;6.50;99.90
20102;DHT22;10210;52.284;9.892;2023-04-06T02:42:45;6.50;99.90
20102;DHT22;10210;52.284;9.892;2023-04-06T02:45:11;6.50;99.90
20102;DHT22;10210;52.284;9.892;2023-04-06T02:47:36;6.40;99.90
20102;DHT22;10210;52.284;9.892;2023-04-06T02:50:02;6.40;99.90
20102;DHT22;10210;52.284;9.892;2023-04-06T02:52:28;6.40;99.90
20102;DHT22;10210;52.284;9.892;2023-04-06T02:54:55;6.40;99.90
20102;DHT22;10210;52.284;9.892;2023-04-06T02:57:20;6.40;99.90
20102;DHT22;10210;52.284;9.892;2023-04-06T02:59:46;6.40;99.90
20102;DHT22;10210;52.284;9.892;2023-04-06T03:02:11;6.40;99.90
20102;DHT22;10210;52.284;9.892;2023-04-06T03:04:37;6.30;99.90
20102;DHT22;10210;52.284;9.892;2023-04-06T03:07:03;6.30;99.90
20102;DHT22;10210;52.284;9.892;2023-04-06T03:09:28;6.30;99.90
20102;DHT22;10210;52.284;9.892;2023-04-06T03:11:54;6.30;99.90
20102;DHT22;10210;52.284;9.892;2023-04-06T03:14:20;6.20;99.90
20102;DHT22;10210;52.284;9.892;2023-04-06T03:16:48;6.20;99.90
20102;DHT22;10210;52.284;9.892;2023-04-06T03:19:14;6.20;99.90
20102;DHT22;10210;52.284;9.892;2023-04-06T03:21:40;6.20;99.90
20102;DHT22;10210;52.284;9.892;2023-04-06T03:24:07;6.20;99.90
20102;DHT22;10210;52.284;9.892;2023-04-06T03:26:33;6.20;99.90
20102;DHT22;10210;52.284;9.892;2023-04-06T03:28:59;6.20;99.90
20102;DHT22;10210;52.284;9.892;2023-04-06T03:31:26;6.10;99.90
20102;DHT22;10210;52.284;9.892;2023-04-06T03:33:51;6.10;99.90
20102;DHT22;10210;52.284;9.892;2023-04-06T03:36:18;6.10;99.90
20102;DHT22;10210;52.284;9.892;2023-04-06T03:38:43;6.10;99.90
20102;DHT22;10210;52.284;9.892;2023-04-06T03:41:09;6.10;99.90
20102;DHT22;10210;52.284;9.892;2023-04-06T03:43:35;6.10;99.90
20102;DHT22;10210;52.284;9.892;2023-04-06T03:46:00;6.00;99.90
20102;DHT22;10210;52.284;9.892;2023-04-06T03:48:26;6.00;99.90
20102;DHT22;10210;52.284;9.892;2023-04-06T03:50:52;5.90;99.90
20102;DHT22;10210;52.284;9.892;2023-04-06T03:53:18;5.90;99.90
20102;DHT22;10210;52.284;9.892;2023-04-06T03:55:44;5.80;99.90
20102;DHT22;10210;52.284;9.892;2023-04-06T03:58:10;5.80;99.90
20102;DHT22;10210;52.284;9.892;2023-04-06T04:00:35;5.70;99.90
20102;DHT22;10210;52.284;9.892;2023-04-06T04:03:01;5.70;99.90
20102;DHT22;10210;52.284;9.892;2023-04-06T04:05:27;5.70;99.90
20102;DHT22;10210;52.284;9.892;2023-04-06T04:07:53;5.60;99.90
20102;DHT22;10210;52.284;9.892;2023-04-06T04:10:19;5.60;99.90
20102;DHT22;10210;52.284;9.892;2023-04-06T04:12:45;5.60;99.90
20102;DHT22;10210;52.284;9.892;2023-04-06T04:15:10;5.60;99.90
20102;DHT22;10210;52.284;9.892;2023-04-06T04:17:36;5.60;99.90
20102;DHT22;10210;52.284;9.892;2023-04-06T04:20:01;5.50;99.90
20102;DHT22;10210;52.284;9.892;2023-04-06T04:22:27;5.50;99.90
20102;DHT22;10210;52.284;9.892;2023-04-06T04:24:53;5.50;99.90
20102;DHT22;10210;52.284;9.892;2023-04-06T04:27:19;5.40;99.90
20102;DHT22;10210;52.284;9.892;2023-04-06T04:29:45;5.40;99.90
20102;DHT22;10210;52.284;9.892;2023-04-06T04:32:11;5.30;99.90
20102;DHT22;10210;52.284;9.892;2023-04-06T04:34:37;5.30;99.90
20102;DHT22;10210;52.284;9.892;2023-04-06T04:37:05;5.30;99.90
20102;DHT22;10210;52.284;9.892;2023-04-06T04:39:32;5.30;99.90
20102;DHT22;10210;52.284;9.892;2023-04-06T04:41:57;5.30;99.90
20102;DHT22;10210;52.284;9.892;2023-04-06T04:44:23;5.30;99.90
20102;DHT22;10210;52.284;9.892;2023-04-06T04:46:49;5.30;99.90
20102;DHT22;10210;52.284;9.892;2023-04-06T04:49:14;5.30;99.90
20102;DHT22;10210;52.284;9.892;2023-04-06T04:51:40;5.30;99.90
20102;DHT22;10210;52.284;9.892;2023-04-06T04:54:06;5.30;99.90
20102;DHT22;10210;52.284;9.892;2023-04-06T04:56:32;5.20;99.90
20102;DHT22;10210;52.284;9.892;2023-04-06T04:58:57;5.20;99.90
20102;DHT22;10210;52.284;9.892;2023-04-06T05:01:23;5.20;99.90
20102;DHT22;10210;52.284;9.892;2023-04-06T05:03:48;5.20;99.90
20102;DHT22;10210;52.284;9.892;2023-04-06T05:06:14;5.20;99.90
20102;DHT22;10210;52.284;9.892;2023-04-06T05:08:41;5.20;99.90
20102;DHT22;10210;52.284;9.892;2023-04-06T05:11:07;5.20;99.90
20102;DHT22;10210;52.284;9.892;2023-04-06T05:13:34;5.20;99.90
20102;DHT22;10210;52.284;9.892;2023-04-06T05:16:00;5.20;99.90
20102;DHT22;10210;52.284;9.892;2023-04-06T05:18:25;5.20;99.90
20102;DHT22;10210;52.284;9.892;2023-04-06T05:20:51;5.20;99.90
20102;DHT22;10210;52.284;9.892;2023-04-06T05:23:17;5.20;99.90
20102;DHT22;10210;52.284;9.892;2023-04-06T05:25:42;5.20;99.90
20102;DHT22;10210;52.284;9.892;2023-04-06T05:28:08;5.20;99.90
20102;DHT22;10210;52.284;9.892;2023-04-06T05:30:34;5.20;99.90
20102;DHT22;10210;52.284;9.892;2023-04-06T05:33:02;5.20;99.90
20102;DHT22;10210;52.284;9.892;2023-04-06T05:35:28;5.20;99.90
20102;DHT22;10210;52.284;9.892;2023-04-06T05:37:53;5.00;99.90
20102;DHT22;10210;52.284;9.892;2023-04-06T05:40:19;5.10;99.90
20102;DHT22;10210;52.284;9.892;2023-04-06T05:42:45;5.20;99.90
20102;DHT22;10210;52.284;9.892;2023-04-06T05:45:11;5.20;99.90
20102;DHT22;10210;52.284;9.892;2023-04-06T05:47:42;5.20;99.90
20102;DHT22;10210;52.284;9.892;2023-04-06T05:50:10;5.30;99.90
20102;DHT22;10210;52.284;9.892;2023-04-06T05:52:36;5.30;99.90
20102;DHT22;10210;52.284;9.892;2023-04-06T05:55:02;5.30;99.90
20102;DHT22;10210;52.284;9.892;2023-04-06T05:57:28;5.30;99.90
20102;DHT22;10210;52.284;9.892;2023-04-06T05:59:54;5.30;99.90
20102;DHT22;10210;52.284;9.892;2023-04-06T06:02:20;5.40;99.90
20102;DHT22;10210;52.284;9.892;2023-04-06T06:04:47;5.40;99.90
20102;DHT22;10210;52.284;9.892;2023-04-06T06:07:13;5.40;99.90
20102;DHT22;10210;52.284;9.892;2023-04-06T06:09:39;5.40;99.90
20102;DHT22;10210;52.284;9.892;2023-04-06T06:12:05;5.40;99.90
20102;DHT22;10210;52.284;9.892;2023-04-06T06:14:31;5.50;99.90
20102;DHT22;10210;52.284;9.892;2023-04-06T06:16:56;5.50;99.90
20102;DHT22;10210;52.284;9.892;2023-04-06T06:19:22;5.60;99.90
20102;DHT22;10210;52.284;9.892;2023-04-06T06:21:49;5.70;99.90
20102;DHT22;10210;52.284;9.892;2023-04-06T06:24:14;5.70;99.90
20102;DHT22;10210;52.284;9.892;2023-04-06T06:26:40;5.80;99.90
20102;DHT22;10210;52.284;9.892;2023-04-06T06:29:06;5.90;99.90
20102;DHT22;10210;52.284;9.892;2023-04-06T06:31:32;5.90;99.90
20102;DHT22;10210;52.284;9.892;2023-04-06T06:33:58;6.00;99.90
20102;DHT22;10210;52.284;9.892;2023-04-06T06:36:24;6.10;99.90
20102;DHT22;10210;52.284;9.892;2023-04-06T06:38:50;6.20;99.90
20102;DHT22;10210;52.284;9.892;2023-04-06T06:41:17;6.30;99.90
20102;DHT22;10210;52.284;9.892;2023-04-06T06:43:43;6.40;99.90
20102;DHT22;10210;52.284;9.892;2023-04-06T06:46:08;6.40;99.90
20102;DHT22;10210;52.284;9.892;2023-04-06T06:48:34;6.50;99.90
20102;DHT22;10210;52.284;9.892;2023-04-06T06:51:00;6.60;99.90
20102;DHT22;10210;52.284;9.892;2023-04-06T06:53:26;6.70;99.90
20102;DHT22;10210;52.284;9.892;2023-04-06T06:55:52;6.80;99.90
20102;DHT22;10210;52.284;9.892;2023-04-06T06:58:18;6.90;99.90
20102;DHT22;10210;52.284;9.892;2023-04-06T07:00:47;6.90;99.90
20102;DHT22;10210;52.284;9.892;2023-04-06T07:03:13;7.10;99.90
20102;DHT22;10210;52.284;9.892;2023-04-06T07:05:44;7.20;99.90
20102;DHT22;10210;52.284;9.892;2023-04-06T07:08:14;7.20;99.90
20102;DHT22;10210;52.284;9.892;2023-04-06T07:10:40;7.30;99.90
20102;DHT22;10210;52.284;9.892;2023-04-06T07:13:05;7.40;99.90
20102;DHT22;10210;52.284;9.892;2023-04-06T07:15:31;7.50;99.90
20102;DHT22;10210;52.284;9.892;2023-04-06T07:17:57;7.60;99.90
20102;DHT22;10210;52.284;9.892;2023-04-06T07:20:22;7.70;99.90
20102;DHT22;10210;52.284;9.892;2023-04-06T07:22:48;7.80;99.90
20102;DHT22;10210;52.284;9.892;2023-04-06T07:25:13;7.90;99.90
20102;DHT22;10210;52.284;9.892;2023-04-06T07:27:39;8.00;99.90
20102;DHT22;10210;52.284;9.892;2023-04-06T07:30:05;8.10;99.90
20102;DHT22;10210;52.284;9.892;2023-04-06T07:32:31;8.20;99.90
20102;DHT22;10210;52.284;9.892;2023-04-06T07:34:57;8.30;99.90
20102;DHT22;10210;52.284;9.892;2023-04-06T07:37:23;8.40;99.90
20102;DHT22;10210;52.284;9.892;2023-04-06T07:39:49;8.50;99.90
20102;DHT22;10210;52.284;9.892;2023-04-06T07:42:17;8.60;99.90
20102;DHT22;10210;52.284;9.892;2023-04-06T07:44:43;8.80;99.90
20102;DHT22;10210;52.284;9.892;2023-04-06T07:47:08;9.10;99.90
20102;DHT22;10210;52.284;9.892;2023-04-06T07:49:34;9.40;99.90
20102;DHT22;10210;52.284;9.892;2023-04-06T07:52:00;9.80;99.90
20102;DHT22;10210;52.284;9.892;2023-04-06T07:54:26;10.30;99.90
20102;DHT22;10210;52.284;9.892;2023-04-06T07:56:52;10.80;99.90
20102;DHT22;10210;52.284;9.892;2023-04-06T07:59:17;11.30;99.90
20102;DHT22;10210;52.284;9.892;2023-04-06T08:01:43;11.70;99.90
20102;DHT22;10210;52.284;9.892;2023-04-06T08:04:09;12.10;99.90
20102;DHT22;10210;52.284;9.892;2023-04-06T08:06:34;12.50;99.90
20102;DHT22;10210;52.284;9.892;2023-04-06T08:09:02;12.80;99.90
20102;DHT22;10210;52.284;9.892;2023-04-06T08:11:28;13.30;99.90
20102;DHT22;10210;52.284;9.892;2023-04-06T08:13:54;13.50;99.90
20102;DHT22;10210;52.284;9.892;2023-04-06T08:16:22;13.90;99.90
20102;DHT22;10210;52.284;9.892;2023-04-06T08:18:48;14.20;99.90
20102;DHT22;10210;52.284;9.892;2023-04-06T08:21:13;14.40;99.90
20102;DHT22;10210;52.284;9.892;2023-04-06T08:23:39;14.70;99.90
20102;DHT22;10210;52.284;9.892;2023-04-06T08:26:05;14.90;99.90
20102;DHT22;10210;52.284;9.892;2023-04-06T08:28:31;15.20;99.90
20102;DHT22;10210;52.284;9.892;2023-04-06T08:30:56;15.40;99.90
20102;DHT22;10210;52.284;9.892;2023-04-06T08:33:22;15.60;99.90
20102;DHT22;10210;52.284;9.892;2023-04-06T08:35:48;15.80;99.90
20102;DHT22;10210;52.284;9.892;2023-04-06T08:38:13;16.00;99.90
20102;DHT22;10210;52.284;9.892;2023-04-06T08:40:40;16.20;99.90
20102;DHT22;10210;52.284;9.892;2023-04-06T08:43:08;16.30;99.90
20102;DHT22;10210;52.284;9.892;2023-04-06T08:45:38;16.40;99.90
20102;DHT22;10210;52.284;9.892;2023-04-06T08:48:09;16.60;99.90
20102;DHT22;10210;52.284;9.892;2023-04-06T08:50:39;16.60;99.90
20102;DHT22;10210;52.284;9.892;2023-04-06T08:53:06;16.70;99.90
20102;DHT22;10210;52.284;9.892;2023-04-06T08:55:33;16.70;99.90
20102;DHT22;10210;52.284;9.892;2023-04-06T08:58:00;16.90;99.90
20102;DHT22;10210;52.284;9.892;2023-04-06T09:00:27;16.90;99.90
20102;DHT22;10210;52.284;9.892;2023-04-06T09:02:55;16.90;99.90
20102;DHT22;10210;52.284;9.892;2023-04-06T09:05:24;16.90;99.90
20102;DHT22;10210;52.284;9.892;2023-04-06T09:07:51;17.00;99.90
20102;DHT22;10210;52.284;9.892;2023-04-06T09:10:17;17.00;99.90
20102;DHT22;10210;52.284;9.892;2023-04-06T09:12:43;17.20;99.90
20102;DHT22;10210;52.284;9.892;2023-04-06T09:15:18;17.20;99.90
20102;DHT22;10210;52.284;9.892;2023-04-06T09:17:46;17.30;99.90
20102;DHT22;10210;52.284;9.892;2023-04-06T09:20:12;17.40;99.90
20102;DHT22;10210;52.284;9.892;2023-04-06T09:22:39;17.50;99.90
20102;DHT22;10210;52.284;9.892;2023-04-06T09:25:08;17.40;99.90
20102;DHT22;10210;52.284;9.892;2023-04-06T09:27:35;17.50;99.90
20102;DHT22;10210;52.284;9.892;2023-04-06T09:30:10;17.40;99.80
20102;DHT22;10210;52.284;9.892;2023-04-06T09:32:51;17.30;99.90
20102;DHT22;10210;52.284;9.892;2023-04-06T09:35:19;17.40;99.90
20102;DHT22;10210;52.284;9.892;2023-04-06T09:37:46;17.40;99.90
20102;DHT22;10210;52.284;9.892;2023-04-06T09:40:14;17.50;99.90
20102;DHT22;10210;52.284;9.892;2023-04-06T09:42:41;17.50;99.90
20102;DHT22;10210;52.284;9.892;2023-04-06T09:45:07;17.50;99.90
20102;DHT22;10210;52.284;9.892;2023-04-06T09:47:36;17.60;99.90
20102;DHT22;10210;52.284;9.892;2023-04-06T09:50:05;17.70;99.90
20102;DHT22;10210;52.284;9.892;2023-04-06T09:52:39;17.70;99.90
20102;DHT22;10210;52.284;9.892;2023-04-06T09:55:08;17.70;99.70
20102;DHT22;10210;52.284;9.892;2023-04-06T09:57:43;17.70;99.90
20102;DHT22;10210;52.284;9.892;2023-04-06T10:00:21;17.70;99.90
20102;DHT22;10210;52.284;9.892;2023-04-06T10:03:07;17.80;99.90
20102;DHT22;10210;52.284;9.892;2023-04-06T10:05:55;17.80;99.90
20102;DHT22;10210;52.284;9.892;2023-04-06T10:08:25;17.90;99.90
20102;DHT22;10210;52.284;9.892;2023-04-06T10:10:55;17.80;99.20
20102;DHT22;10210;52.284;9.892;2023-04-06T10:13:23;17.90;99.90
20102;DHT22;10210;52.284;9.892;2023-04-06T10:15:51;17.80;99.70
20102;DHT22;10210;52.284;9.892;2023-04-06T10:18:17;17.80;99.50
20102;DHT22;10210;52.284;9.892;2023-04-06T10:20:57;17.70;98.40
20102;DHT22;10210;52.284;9.892;2023-04-06T10:23:51;17.60;96.30
20102;DHT22;10210;52.284;9.892;2023-04-06T10:26:22;17.60;94.60
20102;DHT22;10210;52.284;9.892;2023-04-06T10:28:49;17.40;94.10
20102;DHT22;10210;52.284;9.892;2023-04-06T10:31:24;17.40;96.00
20102;DHT22;10210;52.284;9.892;2023-04-06T10:33:56;17.30;92.10
20102;DHT22;10210;52.284;9.892;2023-04-06T10:36:26;17.20;92.80
20102;DHT22;10210;52.284;9.892;2023-04-06T10:38:58;17.10;93.50
20102;DHT22;10210;52.284;9.892;2023-04-06T10:44:05;16.80;93.00
20102;DHT22;10210;52.284;9.892;2023-04-06T10:46:33;16.70;93.50
20102;DHT22;10210;52.284;9.892;2023-04-06T10:49:10;16.60;93.00
20102;DHT22;10210;52.284;9.892;2023-04-06T10:51:39;16.60;91.10
20102;DHT22;10210;52.284;9.892;2023-04-06T10:54:06;16.50;94.30
20102;DHT22;10210;52.284;9.892;2023-04-06T10:56:33;16.50;91.50
20102;DHT22;10210;52.284;9.892;2023-04-06T10:59:02;16.40;91.80
20102;DHT22;10210;52.284;9.892;2023-04-06T11:01:28;16.30;92.60
20102;DHT22;10210;52.284;9.892;2023-04-06T11:03:55;16.40;94.00
20102;DHT22;10210;52.284;9.892;2023-04-06T11:06:29;16.30;92.90
20102;DHT22;10210;52.284;9.892;2023-04-06T11:08:58;16.30;92.20
20102;DHT22;10210;52.284;9.892;2023-04-06T11:11:28;16.30;94.00
20102;DHT22;10210;52.284;9.892;2023-04-06T11:13:57;16.30;94.40
20102;DHT22;10210;52.284;9.892;2023-04-06T11:16:26;16.40;94.70
20102;DHT22;10210;52.284;9.892;2023-04-06T11:19:00;16.40;93.90
20102;DHT22;10210;52.284;9.892;2023-04-06T11:21:45;16.40;93.10
20102;DHT22;10210;52.284;9.892;2023-04-06T11:26:44;16.40;93.50
20102;DHT22;10210;52.284;9.892;2023-04-06T11:29:17;16.40;93.50
20102;DHT22;10210;52.284;9.892;2023-04-06T11:31:50;16.40;94.60
20102;DHT22;10210;52.284;9.892;2023-04-06T11:34:19;16.50;95.50
20102;DHT22;10210;52.284;9.892;2023-04-06T11:36:57;16.50;94.60
20102;DHT22;10210;52.284;9.892;2023-04-06T11:39:28;16.60;94.80
20102;DHT22;10210;52.284;9.892;2023-04-06T11:42:00;16.50;92.30
20102;DHT22;10210;52.284;9.892;2023-04-06T11:47:02;16.60;93.30
20102;DHT22;10210;52.284;9.892;2023-04-06T11:49:32;16.60;94.30
20102;DHT22;10210;52.284;9.892;2023-04-06T11:52:02;16.60;93.40
20102;DHT22;10210;52.284;9.892;2023-04-06T11:54:32;16.60;93.10
20102;DHT22;10210;52.284;9.892;2023-04-06T11:57:04;16.60;92.40
20102;DHT22;10210;52.284;9.892;2023-04-06T11:59:33;16.60;93.30
20102;DHT22;10210;52.284;9.892;2023-04-06T12:02:01;16.70;94.40
20102;DHT22;10210;52.284;9.892;2023-04-06T12:04:31;16.70;94.60
20102;DHT22;10210;52.284;9.892;2023-04-06T12:06:57;16.80;94.10
20102;DHT22;10210;52.284;9.892;2023-04-06T12:09:23;16.80;94.20
20102;DHT22;10210;52.284;9.892;2023-04-06T12:11:49;16.90;94.10
20102;DHT22;10210;52.284;9.892;2023-04-06T12:14:17;16.90;92.00
20102;DHT22;10210;52.284;9.892;2023-04-06T12:16:43;16.90;94.00
20102;DHT22;10210;52.284;9.892;2023-04-06T12:19:09;16.90;92.00
20102;DHT22;10210;52.284;9.892;2023-04-06T12:21:35;16.90;92.80
20102;DHT22;10210;52.284;9.892;2023-04-06T12:24:03;17.00;93.40
20102;DHT22;10210;52.284;9.892;2023-04-06T12:26:29;17.10;94.40
20102;DHT22;10210;52.284;9.892;2023-04-06T12:28:56;17.10;93.30
20102;DHT22;10210;52.284;9.892;2023-04-06T12:31:23;17.10;93.00
20102;DHT22;10210;52.284;9.892;2023-04-06T12:33:51;17.10;92.60
20102;DHT22;10210;52.284;9.892;2023-04-06T12:36:18;17.20;93.20
20102;DHT22;10210;52.284;9.892;2023-04-06T12:38:46;17.20;91.80
20102;DHT22;10210;52.284;9.892;2023-04-06T12:41:13;17.30;93.70
20102;DHT22;10210;52.284;9.892;2023-04-06T12:43:44;17.40;94.10
20102;DHT22;10210;52.284;9.892;2023-04-06T12:46:10;17.40;92.30
20102;DHT22;10210;52.284;9.892;2023-04-06T12:48:36;17.40;92.40
20102;DHT22;10210;52.284;9.892;2023-04-06T12:51:04;17.50;92.70
20102;DHT22;10210;52.284;9.892;2023-04-06T12:53:32;17.50;93.80
20102;DHT22;10210;52.284;9.892;2023-04-06T12:55:59;17.60;92.30
20102;DHT22;10210;52.284;9.892;2023-04-06T12:58:26;17.50;91.90
20102;DHT22;10210;52.284;9.892;2023-04-06T13:00:53;17.50;91.90
20102;DHT22;10210;52.284;9.892;2023-04-06T13:03:21;17.60;92.80
20102;DHT22;10210;52.284;9.892;2023-04-06T13:05:48;17.70;93.40
20102;DHT22;10210;52.284;9.892;2023-04-06T13:08:16;17.80;93.20
20102;DHT22;10210;52.284;9.892;2023-04-06T13:10:50;17.80;92.10
20102;DHT22;10210;52.284;9.892;2023-04-06T13:13:21;17.70;91.50
20102;DHT22;10210;52.284;9.892;2023-04-06T13:16:08;17.70;90.80
20102;DHT22;10210;52.284;9.892;2023-04-06T13:18:35;17.70;92.00
20102;DHT22;10210;52.284;9.892;2023-04-06T13:21:04;17.80;93.50
20102;DHT22;10210;52.284;9.892;2023-04-06T13:23:31;17.90;93.50
20102;DHT22;10210;52.284;9.892;2023-04-06T13:26:01;17.90;92.60
20102;DHT22;10210;52.284;9.892;2023-04-06T13:28:31;17.90;92.10
20102;DHT22;10210;52.284;9.892;2023-04-06T13:30:59;17.90;92.20
20102;DHT22;10210;52.284;9.892;2023-04-06T13:33:26;18.00;92.00
20102;DHT22;10210;52.284;9.892;2023-04-06T13:35:52;18.00;93.00
20102;DHT22;10210;52.284;9.892;2023-04-06T13:38:18;18.10;93.70
20102;DHT22;10210;52.284;9.892;2023-04-06T13:40:44;18.10;93.00
20102;DHT22;10210;52.284;9.892;2023-04-06T13:43:10;18.20;93.20
20102;DHT22;10210;52.284;9.892;2023-04-06T13:45:37;18.20;92.10
20102;DHT22;10210;52.284;9.892;2023-04-06T13:48:04;18.20;91.50
20102;DHT22;10210;52.284;9.892;2023-04-06T13:50:30;18.30;92.40
20102;DHT22;10210;52.284;9.892;2023-04-06T13:52:55;18.30;91.70
20102;DHT22;10210;52.284;9.892;2023-04-06T13:55:22;18.30;91.90
20102;DHT22;10210;52.284;9.892;2023-04-06T13:57:50;18.30;91.70
20102;DHT22;10210;52.284;9.892;2023-04-06T14:00:16;18.40;92.20
20102;DHT22;10210;52.284;9.892;2023-04-06T14:02:42;18.50;92.60
20102;DHT22;10210;52.284;9.892;2023-04-06T14:05:09;18.50;93.00
20102;DHT22;10210;52.284;9.892;2023-04-06T14:07:35;18.50;91.20
20102;DHT22;10210;52.284;9.892;2023-04-06T14:10:01;18.50;90.60
20102;DHT22;10210;52.284;9.892;2023-04-06T14:12:27;18.60;90.90
20102;DHT22;10210;52.284;9.892;2023-04-06T14:14:53;18.50;89.30
20102;DHT22;10210;52.284;9.892;2023-04-06T14:17:19;18.50;89.80
20102;DHT22;10210;52.284;9.892;2023-04-06T14:19:44;18.50;87.20
20102;DHT22;10210;52.284;9.892;2023-04-06T14:22:10;18.50;90.00
20102;DHT22;10210;52.284;9.892;2023-04-06T14:24:36;18.60;90.00
20102;DHT22;10210;52.284;9.892;2023-04-06T14:27:02;18.60;90.00
20102;DHT22;10210;52.284;9.892;2023-04-06T14:29:28;18.60;90.40
20102;DHT22;10210;52.284;9.892;2023-04-06T14:31:54;18.70;90.10
20102;DHT22;10210;52.284;9.892;2023-04-06T14:34:26;18.70;89.20
20102;DHT22;10210;52.284;9.892;2023-04-06T14:36:54;18.70;87.60
20102;DHT22;10210;52.284;9.892;2023-04-06T14:39:20;18.70;86.70
20102;DHT22;10210;52.284;9.892;2023-04-06T14:41:46;18.70;89.10
20102;DHT22;10210;52.284;9.892;2023-04-06T14:44:13;18.70;89.70
20102;DHT22;10210;52.284;9.892;2023-04-06T14:46:40;18.70;88.60
20102;DHT22;10210;52.284;9.892;2023-04-06T14:49:06;18.80;90.30
20102;DHT22;10210;52.284;9.892;2023-04-06T14:51:33;18.80;89.20
20102;DHT22;10210;52.284;9.892;2023-04-06T14:54:01;18.80;88.10
20102;DHT22;10210;52.284;9.892;2023-04-06T14:56:28;18.80;88.70
20102;DHT22;10210;52.284;9.892;2023-04-06T14:58:57;18.80;89.20
20102;DHT22;10210;52.284;9.892;2023-04-06T15:01:24;18.80;85.40
20102;DHT22;10210;52.284;9.892;2023-04-06T15:03:50;18.80;88.30
20102;DHT22;10210;52.284;9.892;2023-04-06T15:06:18;18.90;89.70
20102;DHT22;10210;52.284;9.892;2023-04-06T15:08:46;18.90;90.40
20102;DHT22;10210;52.284;9.892;2023-04-06T15:11:12;18.90;90.30
20102;DHT22;10210;52.284;9.892;2023-04-06T15:13:40;18.90;90.60
20102;DHT22;10210;52.284;9.892;2023-04-06T15:16:07;18.90;90.50
20102;DHT22;10210;52.284;9.892;2023-04-06T15:18:33;18.90;91.20
20102;DHT22;10210;52.284;9.892;2023-04-06T15:21:00;18.90;91.30
20102;DHT22;10210;52.284;9.892;2023-04-06T15:23:27;18.90;90.80
20102;DHT22;10210;52.284;9.892;2023-04-06T15:25:56;18.80;88.10
20102;DHT22;10210;52.284;9.892;2023-04-06T15:28:22;18.80;88.40
20102;DHT22;10210;52.284;9.892;2023-04-06T15:30:48;18.80;90.60
20102;DHT22;10210;52.284;9.892;2023-04-06T15:33:14;18.90;90.60
20102;DHT22;10210;52.284;9.892;2023-04-06T15:35:40;18.80;87.80
20102;DHT22;10210;52.284;9.892;2023-04-06T15:38:08;18.70;87.00
20102;DHT22;10210;52.284;9.892;2023-04-06T15:40:42;18.70;86.40
20102;DHT22;10210;52.284;9.892;2023-04-06T15:43:10;18.70;86.50
20102;DHT22;10210;52.284;9.892;2023-04-06T15:45:36;18.60;88.00